Terminal Aerodrome Forecast
Issued by NWS

Home | Current Version | Previous Version | Text Only | Print | Product List | Glossary On
Versions: 1 2 3 4 5 6 7 8 9 10 11 12 13 14
595
FTUS45 KRIW 251121
TAFCOD
TAF
KCOD 251121Z 2512/2612 26011G18KT P6SM SCT070
     FM251900 27011KT P6SM VCSH SCT035 BKN060
     FM260300 27012G18KT P6SM SCT070
      AMD LTD TO CLD VIS AND WIND=

USA.gov is the U.S. government's official web portal to all federal, state and local government web resources and services.